createdAt,value
2018-04-10T00:00:43.859Z,15.59
2018-04-10T00:03:11.242Z,15.58
2018-04-10T00:05:38.633Z,15.65
2018-04-10T00:08:06.024Z,15.68
2018-04-10T00:10:33.411Z,15.62
2018-04-10T00:13:00.791Z,15.56
2018-04-10T00:15:28.185Z,15.60
2018-04-10T00:17:55.563Z,15.63
2018-04-10T00:20:23.166Z,15.64
2018-04-10T00:22:50.547Z,15.61
2018-04-10T00:25:17.928Z,15.60
2018-04-10T00:27:45.314Z,15.72
2018-04-10T00:30:12.694Z,15.69
2018-04-10T00:32:40.094Z,15.75
2018-04-10T00:35:07.474Z,15.77
2018-04-10T00:37:34.866Z,15.77
2018-04-10T00:40:02.342Z,15.74
2018-04-10T00:42:29.741Z,15.77
2018-04-10T00:44:57.123Z,15.70
2018-04-10T00:47:24.514Z,15.67
2018-04-10T00:49:51.894Z,15.64
2018-04-10T00:52:19.289Z,15.59
2018-04-10T00:54:46.679Z,15.60
2018-04-10T00:57:14.208Z,15.62
2018-04-10T00:59:41.595Z,15.60
2018-04-10T01:02:08.983Z,15.61
2018-04-10T01:04:36.382Z,15.61
2018-04-10T01:07:03.768Z,15.63
2018-04-10T01:09:31.182Z,15.55
2018-04-10T01:11:58.570Z,15.49
2018-04-10T01:14:25.950Z,15.48
2018-04-10T01:16:53.339Z,15.45
2018-04-10T01:19:20.722Z,15.45
2018-04-10T01:21:48.114Z,15.35
2018-04-10T01:24:15.502Z,15.36
2018-04-10T01:26:42.886Z,15.35
2018-04-10T01:29:10.266Z,15.39
2018-04-10T01:31:37.662Z,15.39
2018-04-10T01:34:05.056Z,15.35
2018-04-10T01:36:32.481Z,15.37
2018-04-10T01:38:59.877Z,15.37
2018-04-10T01:41:27.254Z,15.41
2018-04-10T01:43:54.642Z,15.40
2018-04-10T01:46:22.026Z,15.42
2018-04-10T01:48:49.422Z,15.39
2018-04-10T01:51:16.811Z,15.37
2018-04-10T01:53:44.218Z,15.31
2018-04-10T01:56:11.602Z,15.24
2018-04-10T01:58:38.998Z,15.18
2018-04-10T02:01:06.382Z,15.14
2018-04-10T02:03:33.761Z,15.11
2018-04-10T02:06:01.154Z,15.08
2018-04-10T02:08:28.538Z,14.93
2018-04-10T02:10:55.927Z,14.99
2018-04-10T02:13:23.306Z,14.89
2018-04-10T02:15:50.700Z,14.88
2018-04-10T02:18:18.088Z,14.84
2018-04-10T02:20:45.478Z,14.88
2018-04-10T02:23:12.863Z,14.81
2018-04-10T02:25:40.256Z,14.88
2018-04-10T02:28:07.638Z,14.86
2018-04-10T02:30:35.031Z,14.87
2018-04-10T02:33:02.414Z,14.88
2018-04-10T02:35:29.793Z,14.86
2018-04-10T02:37:57.195Z,14.85
2018-04-10T02:40:24.580Z,14.79
2018-04-10T02:42:51.974Z,14.79
2018-04-10T02:45:19.362Z,14.80
2018-04-10T02:47:46.747Z,14.81
2018-04-10T02:50:14.126Z,14.90
2018-04-10T02:52:41.522Z,14.90
2018-04-10T02:55:08.909Z,14.86
2018-04-10T02:57:36.291Z,14.79
2018-04-10T03:00:03.678Z,14.70
2018-04-10T03:02:31.070Z,14.69
2018-04-10T03:04:58.449Z,14.69
2018-04-10T03:07:25.854Z,14.66
2018-04-10T03:09:53.314Z,14.58
2018-04-10T03:12:20.802Z,14.60
2018-04-10T03:14:48.190Z,14.56
2018-04-10T03:17:15.578Z,14.61
2018-04-10T03:19:42.972Z,14.53
2018-04-10T03:22:10.356Z,14.53
2018-04-10T03:24:37.735Z,14.52
2018-04-10T03:27:05.138Z,14.44
2018-04-10T03:29:32.514Z,14.51
2018-04-10T03:31:59.912Z,14.54
2018-04-10T03:34:27.298Z,14.51
2018-04-10T03:36:54.674Z,14.50
2018-04-10T03:39:22.062Z,14.50
2018-04-10T03:41:49.446Z,14.49
2018-04-10T03:44:16.849Z,14.46
2018-04-10T03:46:44.233Z,14.45
2018-04-10T03:49:11.619Z,14.39
2018-04-10T03:51:39.006Z,14.33
2018-04-10T03:54:06.398Z,14.41
2018-04-10T03:56:33.787Z,14.35
2018-04-10T03:59:01.176Z,14.39
2018-04-10T04:01:28.593Z,14.41
2018-04-10T04:03:55.979Z,14.40
2018-04-10T04:06:23.388Z,14.46
2018-04-10T04:08:50.771Z,14.47
2018-04-10T04:11:18.150Z,14.45
2018-04-10T04:13:45.538Z,14.42
2018-04-10T04:16:24.728Z,14.35
2018-04-10T04:19:03.968Z,14.30
2018-04-10T04:21:43.154Z,14.26
2018-04-10T04:24:10.538Z,14.23
2018-04-10T04:26:37.922Z,14.22
2018-04-10T04:29:05.311Z,14.20
2018-04-10T04:31:32.694Z,14.17
2018-04-10T04:34:00.086Z,14.15
2018-04-10T04:36:27.475Z,14.10
2018-04-10T04:38:54.867Z,14.19
2018-04-10T04:41:22.250Z,14.12
2018-04-10T04:43:49.631Z,14.04
2018-04-10T04:46:17.034Z,13.97
2018-04-10T04:48:44.410Z,13.92
2018-04-10T04:51:11.795Z,13.86
2018-04-10T04:53:39.174Z,13.78
2018-04-10T04:56:06.571Z,13.77
2018-04-10T04:58:33.955Z,13.80
2018-04-10T05:01:01.356Z,13.77
2018-04-10T05:03:28.735Z,13.78
2018-04-10T05:05:56.122Z,13.87
2018-04-10T05:08:23.551Z,13.90
2018-04-10T05:10:51.213Z,13.86
2018-04-10T05:13:18.594Z,13.89
2018-04-10T05:15:45.978Z,13.89
2018-04-10T05:18:13.362Z,13.88
2018-04-10T05:20:40.745Z,13.94
2018-04-10T05:23:08.130Z,13.99
2018-04-10T05:25:35.515Z,14.02
2018-04-10T05:28:02.903Z,14.07
2018-04-10T05:30:30.291Z,14.11
2018-04-10T05:32:57.675Z,14.10
2018-04-10T05:35:25.058Z,14.14
2018-04-10T05:37:52.447Z,14.18
2018-04-10T05:40:19.830Z,14.22
2018-04-10T05:42:47.222Z,14.27
2018-04-10T05:45:14.607Z,14.16
2018-04-10T05:47:42.001Z,14.13
2018-04-10T05:50:09.487Z,14.17
2018-04-10T05:52:37.294Z,14.24
2018-04-10T05:55:04.798Z,14.24
2018-04-10T05:57:32.458Z,14.29
2018-04-10T05:59:59.841Z,14.37
2018-04-10T06:02:27.220Z,14.50
2018-04-10T06:04:54.610Z,14.50
2018-04-10T06:07:21.986Z,14.55
2018-04-10T06:09:49.419Z,14.64
2018-04-10T06:12:16.758Z,14.59
2018-04-10T06:14:44.149Z,14.59
2018-04-10T06:17:11.531Z,14.73
2018-04-10T06:19:38.914Z,14.84
2018-04-10T06:22:06.295Z,14.96
2018-04-10T06:24:33.686Z,14.96
2018-04-10T06:27:01.098Z,15.00
2018-04-10T06:29:28.458Z,15.04
2018-04-10T06:31:55.838Z,14.94
2018-04-10T06:34:23.229Z,15.08
2018-04-10T06:36:50.615Z,15.05
2018-04-10T06:39:17.994Z,15.15
2018-04-10T06:41:45.386Z,15.18
2018-04-10T06:44:12.766Z,15.22
2018-04-10T06:46:40.152Z,15.27
2018-04-10T06:49:07.538Z,15.32
2018-04-10T06:51:34.926Z,15.45
2018-04-10T06:54:02.306Z,15.56
2018-04-10T06:56:29.695Z,15.65
2018-04-10T06:58:57.255Z,15.66
2018-04-10T07:01:24.643Z,15.75
2018-04-10T07:03:52.036Z,15.74
2018-04-10T07:06:19.428Z,15.82
2018-04-10T07:08:46.810Z,15.91
2018-04-10T07:11:14.207Z,15.95
2018-04-10T07:13:41.798Z,15.95
2018-04-10T07:16:09.190Z,16.02
2018-04-10T07:18:36.575Z,16.17
2018-04-10T07:21:03.958Z,16.20
2018-04-10T07:23:31.348Z,16.36
2018-04-10T07:25:58.730Z,16.46
2018-04-10T07:28:26.129Z,16.39
2018-04-10T07:30:53.498Z,16.36
2018-04-10T07:33:20.890Z,16.51
2018-04-10T07:35:48.287Z,16.59
2018-04-10T07:38:15.679Z,16.70
2018-04-10T07:40:43.060Z,16.64
2018-04-10T07:43:10.447Z,16.61
2018-04-10T07:45:37.830Z,16.77
2018-04-10T07:48:05.214Z,16.81
2018-04-10T07:50:32.606Z,16.90
2018-04-10T07:52:59.994Z,16.97
2018-04-10T07:55:27.665Z,17.09
2018-04-10T07:57:55.051Z,17.26
2018-04-10T08:00:22.452Z,17.38
2018-04-10T08:02:49.894Z,17.54
2018-04-10T08:05:17.276Z,17.70
2018-04-10T08:07:44.669Z,17.84
2018-04-10T08:10:12.050Z,17.88
2018-04-10T08:12:39.438Z,18.00
2018-04-10T08:15:06.823Z,18.04
2018-04-10T08:17:34.203Z,18.14
2018-04-10T08:20:01.590Z,18.15
2018-04-10T08:22:28.974Z,18.22
2018-04-10T08:24:56.367Z,18.26
2018-04-10T08:27:23.751Z,18.29
2018-04-10T08:29:51.147Z,18.35
2018-04-10T08:32:18.523Z,18.42
2018-04-10T08:34:45.906Z,18.56
2018-04-10T08:37:13.294Z,18.63
2018-04-10T08:39:40.707Z,18.70
2018-04-10T08:42:08.094Z,18.83
2018-04-10T08:44:35.680Z,18.92
2018-04-10T08:47:03.066Z,19.07
2018-04-10T08:49:30.446Z,19.14
2018-04-10T08:51:57.839Z,19.24
2018-04-10T08:54:25.229Z,19.25
2018-04-10T08:56:52.652Z,19.27
2018-04-10T08:59:20.215Z,19.24
2018-04-10T09:01:47.603Z,19.20
2018-04-10T09:04:15.002Z,19.26
2018-04-10T09:06:42.431Z,19.25
2018-04-10T09:09:09.811Z,19.25
2018-04-10T09:11:37.199Z,19.30
2018-04-10T09:14:04.585Z,19.35
2018-04-10T09:16:31.966Z,19.25
2018-04-10T09:18:59.346Z,19.37
2018-04-10T09:21:26.731Z,19.51
2018-04-10T09:23:54.098Z,19.49
2018-04-10T09:26:21.476Z,19.49
2018-04-10T09:28:48.855Z,19.50
2018-04-10T09:31:16.226Z,19.44
2018-04-10T09:33:43.606Z,19.52
2018-04-10T09:36:10.983Z,19.52
2018-04-10T09:38:38.370Z,19.46
2018-04-10T09:41:05.748Z,19.54
2018-04-10T09:43:33.155Z,19.53
2018-04-10T09:46:00.502Z,19.55
2018-04-10T09:48:27.895Z,19.42
2018-04-10T09:50:55.279Z,19.41
2018-04-10T09:53:22.667Z,19.45
2018-04-10T09:55:50.055Z,19.49
2018-04-10T09:58:17.430Z,19.54
2018-04-10T10:00:44.806Z,19.55
2018-04-10T10:03:12.188Z,19.51
2018-04-10T10:05:39.559Z,19.55
2018-04-10T10:08:06.952Z,19.51
2018-04-10T10:10:34.341Z,19.51
2018-04-10T10:13:01.734Z,19.52
2018-04-10T10:15:29.118Z,19.48
2018-04-10T10:17:56.502Z,19.34
2018-04-10T10:20:23.882Z,19.42
2018-04-10T10:22:51.266Z,19.40
2018-04-10T10:25:18.661Z,19.49
2018-04-10T10:27:46.046Z,19.52
2018-04-10T10:30:13.471Z,19.59
2018-04-10T10:32:40.854Z,19.66
2018-04-10T10:35:08.246Z,19.75
2018-04-10T10:37:35.630Z,19.77
2018-04-10T10:40:03.012Z,19.75
2018-04-10T10:42:30.402Z,19.84
2018-04-10T10:44:57.818Z,19.84
2018-04-10T10:47:25.210Z,19.94
2018-04-10T10:49:52.601Z,20.04
2018-04-10T10:52:19.981Z,20.08
2018-04-10T10:54:47.377Z,20.12
2018-04-10T10:57:14.755Z,20.17
2018-04-10T10:59:42.181Z,20.12
2018-04-10T11:02:09.590Z,20.20
2018-04-10T11:04:36.970Z,20.17
2018-04-10T11:07:04.355Z,20.06
2018-04-10T11:09:31.757Z,20.16
2018-04-10T11:11:59.126Z,20.39
2018-04-10T11:14:26.511Z,20.46
2018-04-10T11:16:53.906Z,20.54
2018-04-10T11:19:21.287Z,20.77
2018-04-10T11:21:48.670Z,20.83
2018-04-10T11:24:16.066Z,20.91
2018-04-10T11:26:43.446Z,21.09
2018-04-10T11:29:10.843Z,21.29
2018-04-10T11:31:38.232Z,21.43
2018-04-10T11:34:05.622Z,21.32
2018-04-10T11:36:32.994Z,21.62
2018-04-10T11:39:00.378Z,21.66
2018-04-10T11:41:27.758Z,21.66
2018-04-10T11:43:55.138Z,21.71
2018-04-10T11:46:22.531Z,21.60
2018-04-10T11:48:49.910Z,21.62
2018-04-10T11:51:17.302Z,21.65
2018-04-10T11:53:44.682Z,21.81
2018-04-10T11:56:12.066Z,21.65
2018-04-10T11:58:39.450Z,21.68
2018-04-10T12:01:06.826Z,21.89
2018-04-10T12:03:34.218Z,21.90
2018-04-10T12:06:01.597Z,22.06
2018-04-10T12:08:28.990Z,21.83
2018-04-10T12:10:56.375Z,21.92
2018-04-10T12:13:23.761Z,21.75
2018-04-10T12:15:51.147Z,21.70
2018-04-10T12:18:18.530Z,21.48
2018-04-10T12:20:45.915Z,21.65
2018-04-10T12:23:13.303Z,21.56
2018-04-10T12:25:40.691Z,21.79
2018-04-10T12:28:08.075Z,21.89
2018-04-10T12:30:35.502Z,22.10
2018-04-10T12:33:02.846Z,22.11
2018-04-10T12:35:30.231Z,22.29
2018-04-10T12:37:57.619Z,22.50
2018-04-10T12:40:24.999Z,22.35
2018-04-10T12:42:52.488Z,22.01
2018-04-10T12:45:19.862Z,22.31
2018-04-10T12:47:47.386Z,22.15
2018-04-10T12:50:14.767Z,22.47
2018-04-10T12:52:42.175Z,22.63
2018-04-10T12:55:09.529Z,22.68
2018-04-10T12:57:36.918Z,22.80
2018-04-10T13:00:04.306Z,22.76
2018-04-10T13:02:31.678Z,22.80
2018-04-10T13:04:59.069Z,22.69
2018-04-10T13:07:26.459Z,22.38
2018-04-10T13:09:53.846Z,22.54
2018-04-10T13:12:21.227Z,22.56
2018-04-10T13:14:48.619Z,22.75
2018-04-10T13:17:15.994Z,22.83
2018-04-10T13:19:43.762Z,23.02
2018-04-10T13:22:11.096Z,23.13
2018-04-10T13:24:44.430Z,23.01
2018-04-10T13:27:11.835Z,23.16
2018-04-10T13:29:39.186Z,23.03
2018-04-10T13:32:06.571Z,23.10
2018-04-10T13:34:33.950Z,23.13
2018-04-10T13:37:01.337Z,22.84
2018-04-10T13:39:28.715Z,22.52
2018-04-10T13:41:56.107Z,22.20
2018-04-10T13:44:23.596Z,22.19
2018-04-10T13:46:50.998Z,22.24
2018-04-10T13:49:18.418Z,22.48
2018-04-10T13:51:45.790Z,22.59
2018-04-10T13:54:13.217Z,22.44
2018-04-10T13:56:40.558Z,22.48
2018-04-10T13:59:07.947Z,22.50
2018-04-10T14:01:35.382Z,22.48
2018-04-10T14:04:02.770Z,22.37
2018-04-10T14:06:30.142Z,22.20
2018-04-10T14:08:57.522Z,22.34
2018-04-10T14:11:24.906Z,22.34
2018-04-10T14:13:52.295Z,22.51
2018-04-10T14:16:19.746Z,22.72
2018-04-10T14:18:47.168Z,22.56
2018-04-10T14:21:14.548Z,22.40
2018-04-10T14:23:41.927Z,22.28
2018-04-10T14:26:09.326Z,22.27
2018-04-10T14:28:36.714Z,22.28
2018-04-10T14:31:04.086Z,22.36
2018-04-10T14:33:31.474Z,22.34
2018-04-10T14:35:58.891Z,22.41
2018-04-10T14:38:26.275Z,22.43
2018-04-10T14:40:53.654Z,22.48
2018-04-10T14:43:21.039Z,22.49
2018-04-10T14:45:48.489Z,22.53
2018-04-10T14:48:15.895Z,22.62
2018-04-10T14:50:43.291Z,22.46
2018-04-10T14:53:10.659Z,22.52
2018-04-10T14:55:38.017Z,22.47
2018-04-10T14:58:05.394Z,22.48
2018-04-10T15:00:32.795Z,22.51
2018-04-10T15:03:00.274Z,22.51
2018-04-10T15:05:28.641Z,22.54
2018-04-10T15:08:00.439Z,22.42
2018-04-10T15:10:27.940Z,22.50
2018-04-10T15:12:55.323Z,22.40
2018-04-10T15:15:22.721Z,22.23
2018-04-10T15:17:50.108Z,22.36
2018-04-10T15:20:17.506Z,22.40
2018-04-10T15:22:44.926Z,22.27
2018-04-10T15:25:12.338Z,22.20
2018-04-10T15:27:39.713Z,22.29
2018-04-10T15:30:07.121Z,22.18
2018-04-10T15:32:34.503Z,22.14
2018-04-10T15:35:01.882Z,21.96
2018-04-10T15:37:29.267Z,21.92
2018-04-10T15:39:56.647Z,21.92
2018-04-10T15:42:24.029Z,21.88
2018-04-10T15:44:51.534Z,21.83
2018-04-10T15:47:18.899Z,21.77
2018-04-10T15:49:46.275Z,21.70
2018-04-10T15:52:13.679Z,21.55
2018-04-10T15:54:41.089Z,21.62
2018-04-10T15:57:08.475Z,21.65
2018-04-10T15:59:35.850Z,21.61
2018-04-10T16:02:03.225Z,21.56
2018-04-10T16:04:30.606Z,21.57
2018-04-10T16:06:57.986Z,21.40
2018-04-10T16:09:25.382Z,21.61
2018-04-10T16:11:52.774Z,21.57
2018-04-10T16:14:20.496Z,21.60
2018-04-10T16:16:47.871Z,21.56
2018-04-10T16:19:15.269Z,21.55
2018-04-10T16:21:42.683Z,21.61
2018-04-10T16:24:10.043Z,21.57
2018-04-10T16:26:37.461Z,21.58
2018-04-10T16:29:04.861Z,21.52
2018-04-10T16:31:32.251Z,21.51
2018-04-10T16:33:59.652Z,21.39
2018-04-10T16:36:27.046Z,21.45
2018-04-10T16:38:54.486Z,21.51
2018-04-10T16:41:21.950Z,21.40
2018-04-10T16:43:49.341Z,21.28
2018-04-10T16:46:16.719Z,21.21
2018-04-10T16:48:44.171Z,21.05
2018-04-10T16:51:11.555Z,20.94
2018-04-10T16:53:38.952Z,20.83
2018-04-10T16:56:06.330Z,20.73
2018-04-10T16:58:33.698Z,20.64
2018-04-10T17:01:01.086Z,20.54
2018-04-10T17:03:28.466Z,20.48
2018-04-10T17:05:55.919Z,20.39
2018-04-10T17:08:23.520Z,20.36
2018-04-10T17:10:50.894Z,20.12
2018-04-10T17:13:18.315Z,19.86
2018-04-10T17:15:45.738Z,19.65
2018-04-10T17:18:13.122Z,19.44
2018-04-10T17:20:40.786Z,19.19
2018-04-10T17:23:08.175Z,18.89
2018-04-10T17:25:35.634Z,18.54
2018-04-10T17:28:03.019Z,18.40
2018-04-10T17:30:30.402Z,18.38
2018-04-10T17:32:57.786Z,18.31
2018-04-10T17:35:25.178Z,18.10
2018-04-10T17:37:52.666Z,17.92
2018-04-10T17:40:20.143Z,17.85
2018-04-10T17:42:47.526Z,17.82
2018-04-10T17:45:14.987Z,17.78
2018-04-10T17:47:42.365Z,17.70
2018-04-10T17:52:32.283Z,17.55
2018-04-10T17:54:59.760Z,17.52
2018-04-10T17:57:27.202Z,17.48
2018-04-10T17:59:54.599Z,17.39
2018-04-10T18:02:22.002Z,17.32
2018-04-10T18:04:49.438Z,17.28
2018-04-10T18:07:16.859Z,17.18
2018-04-10T18:09:44.266Z,17.18
2018-04-10T18:12:11.676Z,17.13
2018-04-10T18:14:39.056Z,17.07
2018-04-10T18:17:06.443Z,16.95
2018-04-10T18:19:33.833Z,16.84
2018-04-10T18:22:01.214Z,16.84
2018-04-10T18:24:28.609Z,16.83
2018-04-10T18:26:56.010Z,16.76
2018-04-10T18:29:23.390Z,16.76
2018-04-10T18:31:50.771Z,16.81
2018-04-10T18:34:18.187Z,16.79
2018-04-10T18:36:45.566Z,16.77
2018-04-10T18:39:12.954Z,16.76
2018-04-10T18:41:40.343Z,16.75
2018-04-10T18:44:07.741Z,16.71
2018-04-10T18:46:35.125Z,16.67
2018-04-10T18:49:02.525Z,16.71
2018-04-10T18:51:29.907Z,16.71
2018-04-10T18:53:57.301Z,16.72
2018-04-10T18:56:24.698Z,16.72
2018-04-10T18:58:52.137Z,16.57
2018-04-10T19:01:20.883Z,16.59
2018-04-10T19:03:48.787Z,16.47
2018-04-10T19:06:16.270Z,16.41
2018-04-10T19:08:43.663Z,16.35
2018-04-10T19:11:11.050Z,16.30
2018-04-10T19:13:38.440Z,16.27
2018-04-10T19:16:05.826Z,16.18
2018-04-10T19:18:33.240Z,16.01
2018-04-10T19:21:00.700Z,15.82
2018-04-10T19:23:28.131Z,15.64
2018-04-10T19:25:55.545Z,15.55
2018-04-10T19:28:23.031Z,15.38
2018-04-10T19:30:50.406Z,15.45
2018-04-10T19:33:17.799Z,15.53
2018-04-10T19:35:45.192Z,15.51
2018-04-10T19:38:12.575Z,15.42
2018-04-10T19:40:39.954Z,15.42
2018-04-10T19:43:07.346Z,15.42
2018-04-10T19:45:34.730Z,15.47
2018-04-10T19:48:02.122Z,15.42
2018-04-10T19:50:29.504Z,15.40
2018-04-10T19:52:56.893Z,15.35
2018-04-10T19:55:24.279Z,15.28
2018-04-10T19:57:51.663Z,15.19
2018-04-10T20:00:19.052Z,15.21
2018-04-10T20:02:46.430Z,14.99
2018-04-10T20:05:13.841Z,14.72
2018-04-10T20:07:41.219Z,14.63
2018-04-10T20:10:08.623Z,14.62
2018-04-10T20:12:36.008Z,14.54
2018-04-10T20:15:03.391Z,14.54
2018-04-10T20:17:30.778Z,14.61
2018-04-10T20:19:58.174Z,14.61
2018-04-10T20:22:25.560Z,14.55
2018-04-10T20:24:52.952Z,14.54
2018-04-10T20:27:20.384Z,14.48
2018-04-10T20:29:47.719Z,14.47
2018-04-10T20:32:15.111Z,14.43
2018-04-10T20:34:42.502Z,14.43
2018-04-10T20:37:09.931Z,14.36
2018-04-10T20:39:37.327Z,14.39
2018-04-10T20:42:04.710Z,14.47
2018-04-10T20:44:32.103Z,14.53
2018-04-10T20:46:59.493Z,14.52
2018-04-10T20:49:26.938Z,14.50
2018-04-10T20:51:54.314Z,14.53
2018-04-10T20:54:21.699Z,14.56
2018-04-10T20:56:49.082Z,14.56
2018-04-10T20:59:16.466Z,14.53
2018-04-10T21:01:43.850Z,14.53
2018-04-10T21:04:11.242Z,14.56
2018-04-10T21:06:38.626Z,14.56
2018-04-10T21:09:06.014Z,14.53
2018-04-10T21:11:33.414Z,14.45
2018-04-10T21:14:00.802Z,14.36
2018-04-10T21:16:28.210Z,14.33
2018-04-10T21:18:55.606Z,14.36
2018-04-10T21:21:22.990Z,14.32
2018-04-10T21:23:50.387Z,14.32
2018-04-10T21:26:17.767Z,14.33
2018-04-10T21:28:45.159Z,14.28
2018-04-10T21:31:12.547Z,14.22
2018-04-10T21:33:40.003Z,14.24
2018-04-10T21:36:07.374Z,14.18
2018-04-10T21:38:34.765Z,14.13
2018-04-10T21:41:02.152Z,14.04
2018-04-10T21:43:30.987Z,14.08
2018-04-10T21:45:58.385Z,14.06
2018-04-10T21:48:25.763Z,14.12
2018-04-10T21:50:53.314Z,14.14
2018-04-10T21:53:20.702Z,14.13
2018-04-10T21:55:48.103Z,14.19
2018-04-10T21:58:15.494Z,14.24
2018-04-10T22:00:42.879Z,14.19
2018-04-10T22:03:10.282Z,14.19
2018-04-10T22:05:37.675Z,14.25
2018-04-10T22:08:05.059Z,14.20
2018-04-10T22:10:32.438Z,14.14
2018-04-10T22:12:59.832Z,14.18
2018-04-10T22:15:27.218Z,14.14
2018-04-10T22:17:54.619Z,14.13
2018-04-10T22:20:22.002Z,14.14
2018-04-10T22:22:49.390Z,14.15
2018-04-10T22:25:16.778Z,14.06
2018-04-10T22:27:44.165Z,14.05
2018-04-10T22:30:11.555Z,13.94
2018-04-10T22:32:38.907Z,13.73
2018-04-10T22:35:06.491Z,13.62
2018-04-10T22:37:33.873Z,13.63
2018-04-10T22:40:01.275Z,13.64
2018-04-10T22:42:28.660Z,13.67
2018-04-10T22:44:56.043Z,13.70
2018-04-10T22:47:23.438Z,13.61
2018-04-10T22:49:50.815Z,13.55
2018-04-10T22:52:18.211Z,13.52
2018-04-10T22:54:45.596Z,13.55
2018-04-10T22:57:13.006Z,13.55
2018-04-10T22:59:40.399Z,13.50
2018-04-10T23:02:07.791Z,13.49
2018-04-10T23:04:35.188Z,13.49
2018-04-10T23:07:02.575Z,13.48
2018-04-10T23:09:29.966Z,13.48
2018-04-10T23:11:57.355Z,13.45
2018-04-10T23:14:24.757Z,13.29
2018-04-10T23:16:52.134Z,13.27
2018-04-10T23:19:19.539Z,13.20
2018-04-10T23:21:46.919Z,13.25
2018-04-10T23:24:14.303Z,13.16
2018-04-10T23:26:41.899Z,13.06
2018-04-10T23:29:09.282Z,12.87
2018-04-10T23:31:36.667Z,12.92
2018-04-10T23:34:04.051Z,12.99
2018-04-10T23:36:31.447Z,12.98
2018-04-10T23:38:58.986Z,12.86
2018-04-10T23:41:26.374Z,12.90
2018-04-10T23:43:53.767Z,12.86
2018-04-10T23:46:21.142Z,12.83
2018-04-10T23:48:48.543Z,12.91
2018-04-10T23:51:15.927Z,12.93
2018-04-10T23:53:43.331Z,12.81
2018-04-10T23:56:10.714Z,12.81
2018-04-10T23:58:38.112Z,12.90
